createdAt,value
2023-07-25T00:02:10.964Z,12.60
2023-07-25T00:04:38.538Z,12.60
2023-07-25T00:07:05.931Z,12.60
2023-07-25T00:09:32.973Z,12.60
2023-07-25T00:12:00.037Z,12.60
2023-07-25T00:14:27.070Z,12.60
2023-07-25T00:16:54.146Z,12.60
2023-07-25T00:19:21.615Z,12.50
2023-07-25T00:21:48.711Z,12.50
2023-07-25T00:24:15.885Z,12.40
2023-07-25T00:26:43.143Z,12.40
2023-07-25T00:29:13.365Z,12.40
2023-07-25T00:31:40.473Z,12.30
2023-07-25T00:34:07.969Z,12.30
2023-07-25T00:36:34.946Z,12.10
2023-07-25T00:39:01.994Z,12.10
2023-07-25T00:41:29.379Z,12.00
2023-07-25T00:43:56.669Z,12.00
2023-07-25T00:46:25.168Z,12.00
2023-07-25T00:48:52.568Z,11.90
2023-07-25T00:51:19.615Z,12.00
2023-07-25T00:53:46.870Z,12.00
2023-07-25T00:56:14.847Z,11.90
2023-07-25T00:58:41.882Z,11.90
2023-07-25T01:01:09.193Z,12.00
2023-07-25T01:03:38.537Z,12.00
2023-07-25T01:06:10.744Z,12.10
2023-07-25T01:08:58.185Z,12.10
2023-07-25T01:11:25.492Z,12.20
2023-07-25T01:13:52.920Z,12.20
2023-07-25T01:16:24.619Z,12.20
2023-07-25T01:18:53.104Z,12.30
2023-07-25T01:21:22.946Z,12.30
2023-07-25T01:23:50.592Z,12.30
2023-07-25T01:26:18.852Z,12.30
2023-07-25T01:28:45.858Z,12.40
2023-07-25T01:31:12.927Z,12.40
2023-07-25T01:33:39.980Z,12.40
2023-07-25T01:36:07.300Z,12.40
2023-07-25T01:38:34.553Z,12.50
2023-07-25T01:41:01.668Z,12.40
2023-07-25T01:43:28.719Z,12.40
2023-07-25T01:45:56.600Z,12.40
2023-07-25T01:48:23.670Z,12.30
2023-07-25T01:50:50.743Z,12.00
2023-07-25T01:53:17.768Z,11.80
2023-07-25T01:55:44.771Z,11.60
2023-07-25T01:58:11.817Z,11.50
2023-07-25T02:00:38.899Z,11.60
2023-07-25T02:03:06.001Z,11.70
2023-07-25T02:05:33.097Z,11.70
2023-07-25T02:08:00.301Z,11.80
2023-07-25T02:10:28.998Z,11.80
2023-07-25T02:12:57.370Z,11.80
2023-07-25T02:15:24.490Z,11.80
2023-07-25T02:17:51.928Z,11.80
2023-07-25T02:20:19.422Z,11.80
2023-07-25T02:22:46.423Z,11.80
2023-07-25T02:25:13.468Z,11.80
2023-07-25T02:27:40.604Z,11.80
2023-07-25T02:30:08.216Z,11.80
2023-07-25T02:32:35.280Z,11.80
2023-07-25T02:35:02.312Z,11.80
2023-07-25T02:37:29.425Z,11.80
2023-07-25T02:39:56.452Z,11.80
2023-07-25T02:42:23.526Z,11.70
2023-07-25T02:44:50.649Z,11.80
2023-07-25T02:47:17.675Z,11.80
2023-07-25T02:49:44.731Z,11.90
2023-07-25T02:52:11.814Z,11.90
2023-07-25T02:54:38.843Z,12.00
2023-07-25T02:57:06.897Z,12.00
2023-07-25T02:59:34.090Z,12.10
2023-07-25T03:02:03.872Z,12.10
2023-07-25T03:04:31.578Z,12.10
2023-07-25T03:06:58.605Z,12.10
2023-07-25T03:09:25.829Z,12.10
2023-07-25T03:11:52.836Z,12.10
2023-07-25T03:14:20.891Z,12.00
2023-07-25T03:16:47.964Z,11.90
2023-07-25T03:19:15.049Z,11.90
2023-07-25T03:21:42.508Z,11.80
2023-07-25T03:24:09.899Z,11.70
2023-07-25T03:26:37.039Z,11.70
2023-07-25T03:29:04.131Z,11.70
2023-07-25T03:31:31.445Z,11.80
2023-07-25T03:33:58.778Z,11.80
2023-07-25T03:36:26.949Z,11.80
2023-07-25T03:38:54.068Z,11.80
2023-07-25T03:41:21.139Z,11.80
2023-07-25T03:43:48.265Z,11.80
2023-07-25T03:46:15.398Z,11.90
2023-07-25T03:48:42.551Z,11.80
2023-07-25T03:51:09.584Z,11.80
2023-07-25T03:53:36.579Z,11.70
2023-07-25T03:56:04.288Z,11.70
2023-07-25T03:58:31.417Z,11.60
2023-07-25T04:00:58.434Z,11.70
2023-07-25T04:03:27.678Z,11.70
2023-07-25T04:05:54.985Z,11.70
2023-07-25T04:08:22.100Z,11.70
2023-07-25T04:10:49.186Z,11.70
2023-07-25T04:13:16.216Z,11.80
2023-07-25T04:15:43.207Z,11.90
2023-07-25T04:18:10.434Z,11.90
2023-07-25T04:20:37.510Z,11.90
2023-07-25T04:23:04.585Z,12.00
2023-07-25T04:25:31.692Z,12.00
2023-07-25T04:27:58.787Z,12.10
2023-07-25T04:30:25.789Z,12.10
2023-07-25T04:32:52.886Z,12.00
2023-07-25T04:35:20.458Z,12.00
2023-07-25T04:37:47.630Z,12.10
2023-07-25T04:40:15.086Z,12.10
2023-07-25T04:42:42.263Z,11.90
2023-07-25T04:45:09.967Z,11.90
2023-07-25T04:47:37.027Z,11.90
2023-07-25T04:50:04.323Z,11.90
2023-07-25T04:52:31.393Z,11.90
2023-07-25T04:55:00.215Z,11.80
2023-07-25T04:57:27.797Z,11.80
2023-07-25T04:59:55.277Z,11.80
2023-07-25T05:02:23.121Z,11.80
2023-07-25T05:04:50.157Z,12.00
2023-07-25T05:07:18.448Z,12.00
2023-07-25T05:09:45.675Z,12.00
2023-07-25T05:12:14.515Z,12.00
2023-07-25T05:14:42.409Z,11.90
2023-07-25T05:17:09.473Z,12.00
2023-07-25T05:19:37.441Z,12.10
2023-07-25T05:22:04.683Z,12.10
2023-07-25T05:24:32.750Z,12.00
2023-07-25T05:27:00.429Z,11.90
2023-07-25T05:29:28.113Z,11.90
2023-07-25T05:31:55.122Z,11.90
2023-07-25T05:34:22.255Z,11.70
2023-07-25T05:36:49.263Z,11.70
2023-07-25T05:39:16.295Z,11.70
2023-07-25T05:41:44.215Z,11.70
2023-07-25T05:44:11.255Z,11.70
2023-07-25T05:46:38.302Z,11.70
2023-07-25T05:49:08.199Z,11.70
2023-07-25T05:51:35.583Z,11.60
2023-07-25T05:54:02.685Z,11.60
2023-07-25T05:56:29.785Z,11.60
2023-07-25T05:58:56.815Z,11.50
2023-07-25T06:01:23.847Z,11.40
2023-07-25T06:03:51.023Z,11.40
2023-07-25T06:06:18.105Z,11.40
2023-07-25T06:08:45.110Z,11.50
2023-07-25T06:11:12.121Z,11.60
2023-07-25T06:13:39.444Z,11.70
2023-07-25T06:16:06.702Z,11.80
2023-07-25T06:18:33.741Z,11.90
2023-07-25T06:21:00.810Z,12.00
2023-07-25T06:23:27.881Z,11.90
2023-07-25T06:25:57.485Z,12.10
2023-07-25T06:28:24.525Z,12.20
2023-07-25T06:30:51.696Z,12.40
2023-07-25T06:33:18.730Z,12.70
2023-07-25T06:35:45.983Z,12.90
2023-07-25T06:38:13.060Z,13.10
2023-07-25T06:40:40.080Z,13.10
2023-07-25T06:43:07.133Z,13.10
2023-07-25T06:45:34.191Z,13.00
2023-07-25T06:48:01.327Z,13.00
2023-07-25T06:50:28.552Z,13.10
2023-07-25T06:52:55.674Z,13.30
2023-07-25T06:55:22.664Z,13.50
2023-07-25T06:57:49.692Z,13.60
2023-07-25T07:00:16.853Z,13.80
2023-07-25T07:02:44.363Z,14.00
2023-07-25T07:05:23.793Z,14.10
2023-07-25T07:07:56.895Z,14.30
2023-07-25T07:10:24.020Z,14.50
2023-07-25T07:12:51.889Z,14.60
2023-07-25T07:15:19.356Z,14.50
2023-07-25T07:17:46.383Z,14.60
2023-07-25T07:20:13.552Z,14.70
2023-07-25T07:22:40.525Z,14.90
2023-07-25T07:25:08.089Z,15.00
2023-07-25T07:27:35.118Z,15.10
2023-07-25T07:30:03.432Z,15.30
2023-07-25T07:32:30.554Z,15.40
2023-07-25T07:34:57.590Z,15.30
2023-07-25T07:37:24.611Z,15.10
2023-07-25T07:39:51.640Z,15.10
2023-07-25T07:42:19.020Z,15.20
2023-07-25T07:44:46.222Z,15.20
2023-07-25T07:47:13.267Z,15.20
2023-07-25T07:49:40.412Z,15.40
2023-07-25T07:52:15.438Z,15.40
2023-07-25T07:54:44.708Z,15.50
2023-07-25T07:57:11.816Z,15.50
2023-07-25T07:59:39.452Z,15.40
2023-07-25T08:02:07.192Z,15.40
2023-07-25T08:04:34.329Z,15.50
2023-07-25T08:07:02.255Z,15.50
2023-07-25T08:09:29.243Z,15.70
2023-07-25T08:11:56.293Z,15.40
2023-07-25T08:14:23.322Z,15.40
2023-07-25T08:16:51.472Z,15.40
2023-07-25T08:19:18.604Z,15.50
2023-07-25T08:21:45.619Z,15.50
2023-07-25T08:24:12.653Z,15.50
2023-07-25T08:26:39.704Z,15.50
2023-07-25T08:29:06.805Z,15.40
2023-07-25T08:31:34.151Z,15.40
2023-07-25T08:34:01.607Z,15.10
2023-07-25T08:36:28.685Z,15.00
2023-07-25T08:38:55.733Z,14.90
2023-07-25T08:41:27.831Z,14.80
2023-07-25T08:43:59.978Z,14.80
2023-07-25T08:46:29.141Z,14.80
2023-07-25T08:49:04.675Z,14.80
2023-07-25T08:51:36.318Z,14.70
2023-07-25T08:54:06.860Z,14.60
2023-07-25T08:56:36.321Z,14.40
2023-07-25T08:59:05.034Z,14.20
2023-07-25T09:01:33.377Z,14.10
2023-07-25T09:04:02.017Z,14.00
2023-07-25T09:06:31.652Z,14.00
2023-07-25T09:08:58.983Z,14.00
2023-07-25T09:11:27.428Z,14.00
2023-07-25T09:13:54.597Z,14.20
2023-07-25T09:16:23.658Z,14.30
2023-07-25T09:18:50.794Z,14.40
2023-07-25T09:21:20.107Z,14.40
2023-07-25T09:23:57.728Z,14.30
2023-07-25T09:26:30.800Z,14.30
2023-07-25T09:29:01.870Z,14.30
2023-07-25T09:31:30.319Z,14.30
2023-07-25T09:33:58.232Z,14.30
2023-07-25T09:36:30.813Z,14.20
2023-07-25T09:39:00.199Z,14.30
2023-07-25T09:41:27.994Z,14.20
2023-07-25T09:44:00.861Z,14.30
2023-07-25T09:46:27.999Z,14.20
2023-07-25T09:48:55.728Z,14.20
2023-07-25T09:51:22.845Z,14.20
2023-07-25T09:53:55.129Z,14.10
2023-07-25T09:56:27.419Z,14.10
2023-07-25T10:01:26.894Z,14.40
2023-07-25T10:03:54.707Z,14.60
2023-07-25T10:06:22.093Z,14.80
2023-07-25T10:08:49.887Z,14.80
2023-07-25T10:11:17.394Z,14.90
2023-07-25T10:13:45.015Z,15.10
2023-07-25T10:16:15.794Z,15.40
2023-07-25T10:18:43.232Z,15.50
2023-07-25T10:21:13.062Z,15.60
2023-07-25T10:23:40.584Z,15.60
2023-07-25T10:26:15.567Z,15.80
2023-07-25T10:28:42.880Z,15.70
2023-07-25T10:31:23.935Z,15.50
2023-07-25T10:33:56.285Z,15.20
2023-07-25T10:36:24.956Z,15.00
2023-07-25T10:38:53.977Z,14.90
2023-07-25T10:41:21.786Z,14.90
2023-07-25T10:43:57.072Z,14.70
2023-07-25T10:46:29.449Z,14.60
2023-07-25T10:48:59.932Z,14.40
2023-07-25T10:51:54.523Z,14.30
2023-07-25T10:54:23.757Z,14.40
2023-07-25T10:57:18.499Z,14.50
2023-07-25T11:00:02.541Z,14.60
2023-07-25T11:02:31.844Z,15.00
2023-07-25T11:05:14.538Z,15.30
2023-07-25T11:07:54.916Z,15.60
2023-07-25T11:10:29.334Z,15.90
2023-07-25T11:13:01.402Z,16.30
2023-07-25T11:15:45.694Z,16.50
2023-07-25T11:18:14.397Z,16.60
2023-07-25T11:20:41.559Z,16.70
2023-07-25T11:23:08.923Z,16.50
2023-07-25T11:25:36.375Z,16.40
2023-07-25T11:28:07.661Z,16.20
2023-07-25T11:30:35.871Z,15.90
2023-07-25T11:33:03.292Z,15.70
2023-07-25T11:35:31.308Z,15.40
2023-07-25T11:38:03.919Z,15.10
2023-07-25T11:40:41.836Z,14.90
2023-07-25T11:43:15.648Z,14.80
2023-07-25T11:45:45.454Z,14.70
2023-07-25T11:48:15.445Z,14.70
2023-07-25T11:50:44.456Z,15.20
2023-07-25T11:53:12.534Z,15.80
2023-07-25T11:55:39.710Z,16.60
2023-07-25T11:58:07.198Z,17.40
2023-07-25T12:00:41.847Z,17.70
2023-07-25T12:04:14.490Z,18.30
2023-07-25T12:06:47.555Z,18.60
2023-07-25T12:09:16.518Z,18.30
2023-07-25T12:11:45.056Z,18.20
2023-07-25T12:14:13.897Z,18.00
2023-07-25T12:16:45.219Z,17.70
2023-07-25T12:19:15.536Z,17.20
2023-07-25T12:21:45.245Z,17.20
2023-07-25T12:24:14.621Z,17.20
2023-07-25T12:26:45.855Z,17.30
2023-07-25T12:29:16.925Z,17.60
2023-07-25T12:31:44.643Z,17.90
2023-07-25T12:34:12.089Z,18.30
2023-07-25T12:36:39.422Z,17.70
2023-07-25T12:39:07.153Z,17.60
2023-07-25T12:41:34.389Z,17.50
2023-07-25T12:44:01.590Z,17.10
2023-07-25T12:46:29.539Z,17.10
2023-07-25T12:48:57.049Z,17.10
2023-07-25T12:51:24.086Z,16.90
2023-07-25T12:53:51.230Z,16.80
2023-07-25T12:56:18.314Z,16.70
2023-07-25T12:58:45.464Z,16.80
2023-07-25T13:01:12.984Z,17.10
2023-07-25T13:03:43.547Z,17.20
2023-07-25T13:06:11.290Z,17.20
2023-07-25T13:08:38.325Z,17.60
2023-07-25T13:11:05.707Z,18.00
2023-07-25T13:13:32.778Z,18.00
2023-07-25T13:16:00.237Z,17.70
2023-07-25T13:18:27.372Z,17.80
2023-07-25T13:20:54.576Z,18.20
2023-07-25T13:23:22.032Z,18.10
2023-07-25T13:25:49.133Z,18.40
2023-07-25T13:28:18.075Z,18.20
2023-07-25T13:30:45.257Z,18.40
2023-07-25T13:33:12.451Z,18.30
2023-07-25T13:35:39.617Z,18.20
2023-07-25T13:38:18.842Z,18.20
2023-07-25T13:40:54.061Z,18.20
2023-07-25T13:43:21.161Z,18.00
2023-07-25T13:45:53.112Z,17.60
2023-07-25T13:48:22.135Z,17.50
2023-07-25T13:50:54.286Z,17.60
2023-07-25T13:53:23.298Z,17.80
2023-07-25T13:55:50.618Z,17.90
2023-07-25T14:00:47.736Z,17.80
2023-07-25T14:03:15.014Z,17.70
2023-07-25T14:05:42.350Z,17.60
2023-07-25T14:08:09.497Z,17.50
2023-07-25T14:10:43.660Z,17.50
2023-07-25T14:13:10.829Z,17.40
2023-07-25T14:15:38.048Z,17.40
2023-07-25T14:18:05.389Z,17.30
2023-07-25T14:20:33.125Z,17.20
2023-07-25T14:23:00.400Z,17.00
2023-07-25T14:25:27.593Z,16.80
2023-07-25T14:27:54.884Z,16.70
2023-07-25T14:30:21.882Z,16.80
2023-07-25T14:32:49.081Z,17.20
2023-07-25T14:35:16.540Z,17.70
2023-07-25T14:37:53.540Z,18.20
2023-07-25T14:40:24.306Z,18.30
2023-07-25T14:42:51.653Z,18.30
2023-07-25T14:45:18.786Z,18.30
2023-07-25T14:47:46.101Z,18.50
2023-07-25T14:50:14.224Z,18.60
2023-07-25T14:52:42.172Z,18.80
2023-07-25T14:55:09.796Z,19.00
2023-07-25T14:57:36.882Z,18.80
2023-07-25T15:00:06.770Z,18.70
2023-07-25T15:02:36.734Z,18.60
2023-07-25T15:05:05.326Z,18.40
2023-07-25T15:07:34.952Z,18.30
2023-07-25T15:10:02.652Z,18.20
2023-07-25T15:12:29.954Z,17.80
2023-07-25T15:14:57.132Z,17.40
2023-07-25T15:17:25.961Z,16.80
2023-07-25T15:20:02.480Z,16.30
2023-07-25T15:22:29.895Z,15.50
2023-07-25T15:24:57.666Z,14.80
2023-07-25T15:27:24.928Z,14.40
2023-07-25T15:29:52.220Z,14.00
2023-07-25T15:32:19.387Z,13.70
2023-07-25T15:34:46.571Z,13.60
2023-07-25T15:37:14.135Z,13.70
2023-07-25T15:39:41.434Z,13.90
2023-07-25T15:42:08.908Z,14.10
2023-07-25T15:44:35.958Z,14.20
2023-07-25T15:47:05.961Z,14.20
2023-07-25T15:49:33.139Z,14.10
2023-07-25T15:52:00.719Z,14.10
2023-07-25T15:54:29.000Z,14.20
2023-07-25T15:56:55.995Z,14.20
2023-07-25T15:59:25.504Z,14.20
2023-07-25T16:01:53.855Z,14.10
2023-07-25T16:04:21.110Z,13.70
2023-07-25T16:06:48.542Z,13.10
2023-07-25T16:09:15.697Z,12.60
2023-07-25T16:11:45.781Z,12.40
2023-07-25T16:14:12.830Z,12.20
2023-07-25T16:16:44.735Z,12.10
2023-07-25T16:19:12.206Z,12.10
2023-07-25T16:21:42.632Z,12.10
2023-07-25T16:24:09.975Z,12.10
2023-07-25T16:26:37.289Z,12.10
2023-07-25T16:29:06.620Z,12.10
2023-07-25T16:31:34.164Z,12.00
2023-07-25T16:34:01.727Z,12.00
2023-07-25T16:36:28.949Z,12.00
2023-07-25T16:38:56.304Z,12.10
2023-07-25T16:41:23.568Z,12.10
2023-07-25T16:43:50.630Z,12.20
2023-07-25T16:46:18.389Z,12.20
2023-07-25T16:48:45.872Z,12.20
2023-07-25T16:51:13.050Z,12.30
2023-07-25T16:53:40.184Z,12.40
2023-07-25T16:56:07.535Z,12.50
2023-07-25T16:58:34.950Z,12.60
2023-07-25T17:01:02.764Z,12.70
2023-07-25T17:03:30.487Z,12.80
2023-07-25T17:06:03.820Z,12.90
2023-07-25T17:08:32.240Z,12.80
2023-07-25T17:11:05.700Z,12.90
2023-07-25T17:13:33.753Z,12.90
2023-07-25T17:16:01.557Z,12.80
2023-07-25T17:18:30.775Z,12.80
2023-07-25T17:20:58.078Z,12.90
2023-07-25T17:23:25.310Z,13.00
2023-07-25T17:25:52.781Z,13.00
2023-07-25T17:28:19.931Z,13.00
2023-07-25T17:30:50.064Z,12.90
2023-07-25T17:33:17.388Z,12.80
2023-07-25T17:35:44.842Z,12.70
2023-07-25T17:38:15.629Z,12.80
2023-07-25T17:40:43.651Z,12.80
2023-07-25T17:43:11.147Z,12.80
2023-07-25T17:45:38.360Z,12.90
2023-07-25T17:48:05.606Z,12.90
2023-07-25T17:50:33.188Z,12.80
2023-07-25T17:53:00.783Z,12.70
2023-07-25T17:55:27.858Z,12.70
2023-07-25T17:57:54.946Z,12.70
2023-07-25T18:00:22.284Z,12.60
2023-07-25T18:02:49.627Z,12.50
2023-07-25T18:05:16.868Z,12.50
2023-07-25T18:07:43.914Z,12.50
2023-07-25T18:10:11.175Z,12.40
2023-07-25T18:12:38.230Z,12.40
2023-07-25T18:15:05.910Z,12.30
2023-07-25T18:17:32.986Z,12.20
2023-07-25T18:20:00.093Z,12.20
2023-07-25T18:22:29.093Z,12.10
2023-07-25T18:24:56.452Z,12.00
2023-07-25T18:27:23.605Z,12.10
2023-07-25T18:29:50.780Z,12.10
2023-07-25T18:32:17.909Z,12.00
2023-07-25T18:34:44.987Z,12.00
2023-07-25T18:37:12.223Z,11.90
2023-07-25T18:39:39.277Z,11.90
2023-07-25T18:42:06.819Z,11.90
2023-07-25T18:44:33.875Z,11.90
2023-07-25T18:47:00.955Z,11.90
2023-07-25T18:49:28.148Z,11.80
2023-07-25T18:51:55.514Z,11.90
2023-07-25T18:54:22.670Z,11.80
2023-07-25T18:56:49.776Z,11.80
2023-07-25T18:59:17.166Z,11.80
2023-07-25T19:01:44.505Z,11.80
2023-07-25T19:04:12.011Z,11.80
2023-07-25T19:06:39.341Z,11.80
2023-07-25T19:09:06.602Z,11.60
2023-07-25T19:11:33.666Z,11.50
2023-07-25T19:14:00.801Z,11.40
2023-07-25T19:16:27.880Z,11.30
2023-07-25T19:18:55.092Z,11.10
2023-07-25T19:21:22.204Z,11.00
2023-07-25T19:23:49.249Z,10.80
2023-07-25T19:26:16.328Z,10.80
2023-07-25T19:28:43.390Z,10.70
2023-07-25T19:31:13.544Z,10.70
2023-07-25T19:33:40.693Z,10.70
2023-07-25T19:36:07.798Z,10.70
2023-07-25T19:38:35.161Z,10.80
2023-07-25T19:41:02.282Z,10.70
2023-07-25T19:43:29.400Z,10.70
2023-07-25T19:46:03.951Z,10.70
2023-07-25T19:48:31.156Z,10.70
2023-07-25T19:50:58.241Z,10.70
2023-07-25T19:53:25.373Z,10.60
2023-07-25T19:55:54.699Z,10.70
2023-07-25T19:58:21.931Z,10.70
2023-07-25T20:00:49.142Z,10.70
2023-07-25T20:03:16.453Z,10.60
2023-07-25T20:05:43.666Z,10.60
2023-07-25T20:08:10.719Z,10.50
2023-07-25T20:10:37.868Z,10.40
2023-07-25T20:13:05.004Z,10.30
2023-07-25T20:15:32.159Z,10.10
2023-07-25T20:17:59.256Z,10.10
2023-07-25T20:20:26.421Z,9.90
2023-07-25T20:22:53.652Z,9.90
2023-07-25T20:25:24.853Z,9.80
2023-07-25T20:27:52.168Z,9.80
2023-07-25T20:30:19.327Z,9.80
2023-07-25T20:32:46.821Z,9.80
2023-07-25T20:35:13.995Z,9.80
2023-07-25T20:37:41.027Z,9.90
2023-07-25T20:40:09.782Z,10.00
2023-07-25T20:42:37.178Z,10.20
2023-07-25T20:45:04.651Z,10.20
2023-07-25T20:47:33.996Z,10.10
2023-07-25T20:50:01.089Z,10.00
2023-07-25T20:52:28.730Z,10.10
2023-07-25T20:54:55.738Z,10.00
2023-07-25T20:57:22.946Z,10.00
2023-07-25T20:59:50.035Z,10.00
2023-07-25T21:02:17.311Z,10.00
2023-07-25T21:04:44.418Z,10.00
2023-07-25T21:07:12.603Z,9.90
2023-07-25T21:09:39.712Z,9.90
2023-07-25T21:12:07.124Z,9.80
2023-07-25T21:14:34.353Z,9.80
2023-07-25T21:17:02.011Z,9.70
2023-07-25T21:19:29.173Z,9.60
2023-07-25T21:21:56.254Z,9.60
2023-07-25T21:24:23.403Z,9.60
2023-07-25T21:26:50.601Z,9.50
2023-07-25T21:29:17.625Z,9.50
2023-07-25T21:31:44.688Z,9.50
2023-07-25T21:34:11.772Z,9.50
2023-07-25T21:36:39.081Z,9.50
2023-07-25T21:39:06.763Z,9.50
2023-07-25T21:41:33.914Z,9.70
2023-07-25T21:44:03.624Z,9.80
2023-07-25T21:46:30.823Z,9.90
2023-07-25T21:48:58.107Z,10.00
2023-07-25T21:51:25.181Z,10.00
2023-07-25T21:53:52.318Z,10.10
2023-07-25T21:56:19.349Z,10.10
2023-07-25T21:58:46.569Z,10.10
2023-07-25T22:01:13.903Z,10.10
2023-07-25T22:03:41.055Z,10.10
2023-07-25T22:06:08.212Z,10.20
2023-07-25T22:08:35.374Z,10.20
2023-07-25T22:11:02.809Z,10.20
2023-07-25T22:13:29.839Z,10.30
2023-07-25T22:15:56.955Z,10.30
2023-07-25T22:18:24.164Z,10.40
2023-07-25T22:20:53.104Z,10.30
2023-07-25T22:23:21.509Z,10.30
2023-07-25T22:25:49.068Z,10.40
2023-07-25T22:28:16.145Z,10.40
2023-07-25T22:30:43.272Z,10.40
2023-07-25T22:33:10.359Z,10.40
2023-07-25T22:35:37.597Z,10.40
2023-07-25T22:38:05.707Z,10.50
2023-07-25T22:40:33.050Z,10.50
2023-07-25T22:43:00.079Z,10.40
2023-07-25T22:45:28.498Z,10.30
2023-07-25T22:47:55.913Z,10.30
2023-07-25T22:50:23.535Z,10.30
2023-07-25T22:52:50.830Z,10.30
2023-07-25T22:55:19.553Z,10.30
2023-07-25T22:57:46.693Z,10.30
2023-07-25T23:00:14.860Z,10.30
2023-07-25T23:02:42.179Z,10.20
2023-07-25T23:05:09.827Z,10.20
2023-07-25T23:07:36.893Z,10.20
2023-07-25T23:10:04.538Z,10.10
2023-07-25T23:12:31.704Z,10.20
2023-07-25T23:14:58.798Z,10.20
2023-07-25T23:17:25.947Z,10.20
2023-07-25T23:19:53.178Z,10.20
2023-07-25T23:22:20.293Z,10.20
2023-07-25T23:24:47.587Z,10.30
2023-07-25T23:27:14.685Z,10.30
2023-07-25T23:29:41.745Z,10.40
2023-07-25T23:32:09.095Z,10.30
2023-07-25T23:34:51.070Z,10.30
2023-07-25T23:37:18.441Z,10.20
2023-07-25T23:39:45.637Z,10.20
2023-07-25T23:42:13.085Z,10.20
2023-07-25T23:44:42.966Z,10.20
2023-07-25T23:47:13.070Z,10.10
2023-07-25T23:49:40.383Z,10.20
2023-07-25T23:52:07.862Z,10.20
2023-07-25T23:54:35.073Z,10.20
2023-07-25T23:57:04.562Z,10.20
2023-07-25T23:59:32.180Z,10.30
